Green Hill, Arkansas
Current Conditions -  °F | °C
As of 1:53 AM on Tuesday 27 Jan 2015 (Local Time) from KLLQ Reporting Station
Clear Clear  
Wind Chill: 41°   Ceiling: Unl
Heat Index: 46°   Visibility: 10mi
Dew Point: 35°   Wind: 9mph
Humidity: 66%   Direction: 270°W
Pressure: 30.02"   Gusts: NA
Location:  33.6204°N, 91.9247°W
Report Text: KLLQ 270753Z AUTO 27008KT 10SM CLR 08/02 A3002 RMK AO2 SLP166 T00780017
Loading
Personal Weather Stations






























Interactive Weather Map New forecast layout! Learn more

10-Day Weather Forecast

Advertisements
Track Severe Weather on mobile